AirNav   ATP
 
 320 users online  

8Y6 Leaders/Clear Lake Airport
Clear Lake, Minnesota, USA

GOING TO CLEAR LAKE?


FAA INFORMATION EFFECTIVE 09 NOVEMBER 2017

Location

FAA Identifier: 8Y6
Lat/Long: 45-26-39.8760N / 093-58-15.9300W
45-26.664600N / 093-58.265500W
45.4444100 / -93.9710917
(estimated)
Elevation: 990 ft. / 302 m (estimated)
Variation: 04E (1985)
From city: 2 miles E of CLEAR LAKE, MN
Time zone: UTC -6 (UTC -5 during Daylight Saving Time)
Zip code: 55319

Airport Operations

Airport use: Open to the public
Activation date: 04/1970
Control tower: no
ARTCC: MINNEAPOLIS CENTER
FSS: PRINCETON FLIGHT SERVICE STATION
NOTAMs facility: PNM (NOTAM-D service available)
Attendance: 0800-DUSK
Wind indicator: yes
Segmented circle: no

Airport Communications

CTAF: 122.9
WX ASOS at STC (7 nm NW): 112.1 (320-240-8781)
WX AWOS-3 at MGG (13 nm S): 128.325 (320-963-3300)
WX AWOS-3 at PNM (17 nm NE): 119.025 (763-389-0615)
WX AWOS-3 at CFE (18 nm S): 120.45 (763-684-0762)

Nearby radio navigation aids

VOR radial/distance  VOR name  Freq  Var
STCr147/7.3ST CLOUD VOR/DME112.1003E
DWNr037/29.6DARWIN VORTAC109.0007E
GEPr299/31.0GOPHER VORTAC117.3006E

 
NDB name  Hdg/Dist  Freq  Var  ID
HUSSK180/2.134203EST ... -
PRINCETON242/16.936803EPNM .--. -. --
CAMBRIDGE256/30.635001ECBG -.-. -... --.
LITTLE FALLS150/34.135903ELXL .-.. -..- .-..
MORA228/39.832700WJMR .--- -- .-.

Airport Services

Fuel available: 100LL
AFT HOURS CTC AMGR.
Parking: hangars and tiedowns
Airframe service: MAJOR
Powerplant service: MAJOR
Bottled oxygen: NONE
Bulk oxygen: NONE

Runway Information

Runway 18/36

Dimensions: 3000 x 150 ft. / 914 x 46 m
Surface: asphalt/turf, in fair condition
THERE ARE SEVERAL BARE SPOTS ALONG THE CENTER OF THE RY.
SEVERAL BARE SPOTS ALONG THE CNTR OF THE RY.
Runway edge markings: RY 18/36 AND DISPLACED THRESHOLDS MKD WITH YELLOW CONES.
RUNWAY 18  RUNWAY 36
Latitude: 45-26.894833N45-26.401167N
Longitude: 093-58.265500W093-58.265500W
Elevation: 985.0 ft.985.0 ft.
Traffic pattern: leftleft
Runway end identifier lights: nono
Obstructions: 45 ft. trees, 524 ft. from runway, 174 ft. right of centerline, 11:1 slope to clear15 ft. road, 10 ft. from runway
RWY 36: TREES +40, 511 FM END, 156L, 20:1 TO DISPL THLD.

Airport Ownership and Management from official FAA records

Ownership: Privately-owned
Owner: BOB LEADERS
8948 - 95TH AVENUE
CLEAR LAKE, MN 55319
Phone 612-743-2294
Manager: BOB LEADERS
8948 - 95TH AVENUE
CLEAR LAKE, MN 55319
Phone 612-743-2294

Airport Operational Statistics

Aircraft based on the field: 26
Single engine airplanes: 22
Multi engine airplanes: 2
Ultralights: 2
    
Aircraft operations: avg 134/week *
71% local general aviation
29% transient general aviation
<1% military
* for 12-month period ending 30 September 2015

Instrument Procedures

There are no published instrument procedures at 8Y6.

Some nearby airports with instrument procedures:

KSTC - St Cloud Regional Airport (7 nm NW)
KMGG - Maple Lake Municipal Airport-Bill Mavencamp Sr Field (13 nm S)
KPNM - Princeton Municipal Airport (17 nm NE)
KCFE - Buffalo Municipal Airport (18 nm S)
KCBG - Cambridge Municipal Airport (30 nm E)
 
Loc | Ops | Rwys | IFR | FBO | Links
Com | Nav | Svcs | Stats | Notes


 
Area around 8Y6 (Leaders/Clear Lake Airport)
 
Road maps at: MapQuest Bing Google
 
Aerial photo
No photo
 
Sectional chart

 
Airport distance calculator
Flying to Leaders/Clear Lake Airport? Find the distance to fly.

From to 8Y6

Sunrise and sunset
Times for 19-Nov-2017
 Local
(UTC-6)
 Zulu
(UTC)
Morning civil twilight06:4912:49
Sunrise07:2113:21
Sunset16:4122:41
Evening civil twilight17:1423:14

Current date and time
Zulu (UTC)  19-Nov-2017 09:05:24
Local (UTC-6)  19-Nov-2017 03:05:24
 
METAR
KSTC 
7nm NW 
190853Z AUTO 27004KT 10SM CLR M09/M13 A3007 RMK AO2 SLP206 T10891128 51008
KMGG 
13nm S 
190854Z AUTO 26004KT 10SM CLR M08/M11 A3009 RMK AO2 T10781108
KPNM 
17nm E 
190854Z AUTO 26004KT 10SM CLR M08/M12 A3006 RMK AO2
KCFE 
18nm S 
190855Z AUTO 27005KT 10SM CLR M08/M11 A3010 RMK AO2 T10761115
TAF
KSTC 
7nm NW 
190520Z 1906/2006 30008KT P6SM SKC FM191300 27004KT P6SM FEW250 FM191700 21007KT P6SM FEW250
NOTAMs
Click for the latest NOTAMs
NOTAMs are issued by the DoD/FAA and will open in a separate window not controlled by AirNav.

 

 
 

FBO, Fuel Providers, and Aircraft Ground Support

  
 Business Name 
 
 Contact 
 
 Services / Description 
 
Fuel Prices
 
Comments
  
Leaders St. Cloud Flying Service 320-743-2294
no information available

If you are affiliated with Leaders St. Cloud Flying Service and would like to show here your services, contact info, web link, logo, and more, click here
100LL
FS $4.25 
 Updated 16-Nov-2017
 
   write
FS=Full service
Update Fuel Prices
 

Would you like to see your business listed on this page?

 If your business provides an interesting product or service to pilots, flight crews, aircraft, or users of the Leaders/Clear Lake Airport, you should consider listing it here.  To start the listing process, click on the button below
 
Add a business
 

Other Pages about Leaders/Clear Lake Airport

PDF page(s) from the Minnesota Airport Directory
 
Update a link
 
Copyright © AirNav, LLC. All rights reserved. Privacy Policy  Contact